Denton, TX

12:19 PM CDT on March 27, 2015 (GMT -0500)
Addison | | Change Station
CLOSE
Current Station
Airport
Location: Dallas Addison,
Elevation: 643 ft
Nearby Weather Stations

Elev 643 ft 32.97 °N, 96.84 °W | Updated 32 minutes ago

Clear
Clear
64 °F
Feels Like 64 °F
N
16
Wind Variable Wind from North
Gusts 25 mph

Today
High -- | Low -- °F
--% Chance of Precip.
Yesterday
High -- | Low -- °F
Precip. -- in
7:23 AM 7:45 PM
First Quarter, 54% visible
Pressure 30.19 in
Visibility 13.0 miles
Clouds Scattered Clouds 20000 ft
Mostly Cloudy 25000 ft
Dew Point 34 °F
Humidity 32%
Rainfall 0.00 in
Snow Depth Not available.
UV 4 out of 12
Pollen 10.50 out of 12
Air Quality Not available.
Flu Activity Not available.
METAR KADS 271647Z 35014G22KT 13SM SCT200 BKN250 18/01 A3019

More Conditions Fewer Conditions

Pressure 30.19 in
Visibility 13.0 miles
Clouds Scattered Clouds 20000 ft
Mostly Cloudy 25000 ft
Dew Point 34 °F
Humidity 32%
Rainfall 0.00 in
Snow Depth Not available.
UV 4 out of 12
Pollen 10.50 out of 12
Air Quality Not available.
Flu Activity Not available.
METAR KADS 271647Z 35014G22KT 13SM SCT200 BKN250 18/01 A3019

More Conditions Fewer Conditions

10-Day Weather Forecast

Almanac

Astronomy

Mar. 27, 2015 Rise Set
Actual Time
Civil Twilight
Nautical Twilight
Astronomical Twilight
Moon
Length of Visible Light
Length of Day
Tomorrow will be .
, % of the Moon is Illuminated

Today's Extremes

State Highs State Lows

Community

WunderPhotos

Upload Photos

1,808,768 photos uploaded!

WunderBlogs® & News

Nearby

Air Quality

  Air Quality AQ Index Pollutant
Not available.

Snow Depth

Station Depth Elevation

Earthquake Activity

City Distance Mag. Time & Date
Minimum magnitude displayed is 2.5.

Coastal Water Temperatures

Place Temperature

Stations

Nearby Weather Stations

Station Location Temp. Windchill Dew Point Humidity Wind Precip. Elev Updated Type